Time;durP1;ratioP1;P1;durP2;ratioP2;P2;SDS_P1;SDS_P2;PMS_P1;PMS_P2;Temp;Humidity;BMP_temperature;BMP_pressure;BME280_temperature;BME280_humidity;BME280_pressure;Samples;Min_cycle;Max_cycle;Signal;HPM_P1;HPM_P2
2022/08/14 00:01:10;;;;;;;10.60;9.10;;;23.60;45.50;;;;;;5151415;27;20471;-41
2022/08/14 00:03:37;;;;;;;14.97;11.40;;;23.50;45.40;;;;;;5150783;27;20419;-40
2022/08/14 00:06:04;;;;;;;14.30;12.50;;;23.50;45.40;;;;;;5150475;27;20391;-40
2022/08/14 00:08:30;;;;;;;14.40;11.00;;;23.50;45.40;;;;;;5152187;27;20391;-40
2022/08/14 00:10:56;;;;;;;15.03;11.57;;;23.50;46.20;;;;;;5151224;27;20443;-40
2022/08/14 00:13:27;;;;;;;14.93;11.43;;;23.40;45.60;;;;;;5151898;27;20441;-39
2022/08/14 00:15:54;;;;;;;15.23;10.57;;;23.40;45.40;;;;;;5151025;27;20430;-40
2022/08/14 00:18:22;;;;;;;16.77;13.43;;;23.40;45.70;;;;;;5151662;27;20403;-40
2022/08/14 00:20:50;;;;;;;19.00;13.10;;;23.30;45.80;;;;;;5149838;27;20459;-40
2022/08/14 00:23:17;;;;;;;18.03;14.00;;;23.30;45.60;;;;;;5150019;27;20903;-41
2022/08/14 00:25:50;;;;;;;19.40;12.40;;;23.30;45.60;;;;;;5149880;27;20759;-40
2022/08/14 00:28:15;;;;;;;15.13;12.30;;;23.40;45.50;;;;;;5149959;27;20490;-40
2022/08/14 00:30:42;;;;;;;18.00;11.33;;;23.30;45.50;;;;;;5149748;27;20461;-41
2022/08/14 00:33:08;;;;;;;18.10;12.90;;;23.30;45.50;;;;;;5138160;27;20170;-41
2022/08/14 00:35:34;;;;;;;18.17;11.93;;;23.30;45.40;;;;;;5135782;27;20408;-41
2022/08/14 00:38:00;;;;;;;15.80;11.77;;;23.30;45.50;;;;;;5136017;27;20194;-41
2022/08/14 00:40:26;;;;;;;16.93;12.97;;;23.30;45.50;;;;;;5135733;27;20471;-41
2022/08/14 00:42:52;;;;;;;19.27;13.80;;;23.20;45.90;;;;;;5135842;27;20428;-40
2022/08/14 00:45:18;;;;;;;16.40;13.33;;;23.10;45.80;;;;;;5135715;27;20399;-40
2022/08/14 00:47:47;;;;;;;21.60;14.73;;;23.10;45.80;;;;;;5117263;27;20171;-40
2022/08/14 00:50:17;;;;;;;22.63;11.77;;;23.10;45.80;;;;;;5135579;27;20447;-40
2022/08/14 00:52:45;;;;;;;13.13;10.93;;;23.00;46.10;;;;;;5135493;27;20408;-40
2022/08/14 00:55:11;;;;;;;14.57;11.80;;;23.00;46.00;;;;;;5135781;27;20411;-40
2022/08/14 00:57:38;;;;;;;16.00;10.13;;;23.00;45.90;;;;;;5135411;27;20487;-40
2022/08/14 01:00:14;;;;;;;13.20;10.50;;;23.00;46.00;;;;;;5135374;27;20455;-40
2022/08/14 01:02:43;;;;;;;13.40;9.57;;;23.00;45.70;;;;;;5135572;27;20785;-40
2022/08/14 01:05:22;;;;;;;12.97;10.30;;;23.00;45.80;;;;;;5135447;27;20392;-40
2022/08/14 01:07:53;;;;;;;15.13;9.40;;;23.00;46.00;;;;;;5135506;27;20412;-40
2022/08/14 01:10:19;;;;;;;12.10;9.40;;;23.00;45.90;;;;;;5135448;27;20431;-40
2022/08/14 01:12:47;;;;;;;17.27;9.03;;;22.90;46.10;;;;;;5135309;27;20396;-40
2022/08/14 01:15:15;;;;;;;11.07;8.73;;;22.90;46.30;;;;;;5135166;27;20419;-40
2022/08/14 01:23:13;;;;;;;12.00;8.87;;;22.70;46.20;;;;;;5135162;27;20799;-41
2022/08/14 01:25:40;;;;;;;8.30;7.20;;;22.80;46.10;;;;;;5134965;27;20400;-40
2022/08/14 01:28:06;;;;;;;9.73;8.40;;;22.70;46.20;;;;;;5134805;27;20432;-41
2022/08/14 01:30:37;;;;;;;9.33;8.33;;;22.70;46.20;;;;;;5116404;27;20462;-40
2022/08/14 01:33:05;;;;;;;11.30;7.20;;;22.70;46.10;;;;;;5134837;27;20408;-41
2022/08/14 01:35:31;;;;;;;9.80;8.00;;;22.70;46.00;;;;;;5134666;27;20407;-40
2022/08/14 01:37:57;;;;;;;8.83;7.27;;;22.70;46.10;;;;;;5134704;27;20424;-41
2022/08/14 01:40:25;;;;;;;8.33;7.23;;;22.70;45.90;;;;;;5134539;27;20875;-39
2022/08/14 01:42:50;;;;;;;10.20;8.30;;;22.70;45.90;;;;;;5134584;27;20482;-40
2022/08/14 01:45:16;;;;;;;8.03;6.70;;;22.70;45.90;;;;;;5133655;27;20404;-40
2022/08/14 01:47:42;;;;;;;8.90;7.70;;;22.70;45.70;;;;;;5134704;27;20170;-40
2022/08/14 01:50:08;;;;;;;7.70;6.60;;;22.70;45.70;;;;;;5134557;27;20191;-40
2022/08/14 01:52:37;;;;;;;10.10;7.43;;;22.70;45.60;;;;;;5134552;27;20224;-40
2022/08/14 01:55:05;;;;;;;7.10;6.40;;;22.70;45.60;;;;;;5134577;27;20412;-42
2022/08/14 01:57:36;;;;;;;10.83;7.70;;;22.60;45.80;;;;;;5134319;27;20411;-40
2022/08/14 02:00:14;;;;;;;9.27;7.13;;;22.60;46.00;;;;;;5134098;27;20469;-40
2022/08/14 02:02:39;;;;;;;8.33;6.60;;;22.60;45.90;;;;;;5134303;27;20392;-41
2022/08/14 02:05:07;;;;;;;9.50;5.90;;;22.60;45.90;;;;;;5134509;27;20453;-40
2022/08/14 02:07:35;;;;;;;8.90;7.30;;;22.60;45.80;;;;;;5133919;27;20237;-40
2022/08/14 02:10:01;;;;;;;9.77;7.40;;;22.60;45.90;;;;;;5133974;27;20421;-40
2022/08/14 02:12:27;;;;;;;10.37;8.63;;;22.60;46.10;;;;;;5134035;27;20397;-39
2022/08/14 02:14:52;;;;;;;8.77;6.77;;;22.40;46.00;;;;;;5134024;27;20400;-40
2022/08/14 02:17:22;;;;;;;10.63;7.80;;;22.40;46.20;;;;;;5133929;27;20404;-40
2022/08/14 02:19:49;;;;;;;9.63;7.63;;;22.30;46.40;;;;;;5133762;27;20235;-41
2022/08/14 02:22:17;;;;;;;10.30;7.93;;;22.30;46.30;;;;;;5133827;27;20887;-40
2022/08/14 02:24:44;;;;;;;10.17;7.60;;;22.30;46.20;;;;;;5134711;27;20456;-42
2022/08/14 02:27:10;;;;;;;11.10;7.37;;;22.40;46.10;;;;;;5133560;27;20402;-40
2022/08/14 02:29:37;;;;;;;9.10;6.87;;;22.30;46.30;;;;;;5133843;27;20411;-40
2022/08/14 02:32:03;;;;;;;11.27;8.03;;;22.30;46.50;;;;;;5133821;27;20409;-40
2022/08/14 02:34:35;;;;;;;10.00;7.43;;;22.20;46.60;;;;;;5133781;27;20456;-42
2022/08/14 02:37:09;;;;;;;8.27;7.40;;;22.20;46.40;;;;;;5133670;27;20400;-40
2022/08/14 02:39:38;;;;;;;8.30;7.00;;;22.20;46.40;;;;;;5133530;27;20414;-41
2022/08/14 02:42:06;;;;;;;8.90;7.07;;;22.20;46.20;;;;;;5133626;27;20448;-40
2022/08/14 02:44:33;;;;;;;9.60;8.17;;;22.20;46.20;;;;;;5133539;27;20412;-39
2022/08/14 02:46:59;;;;;;;9.30;8.30;;;22.20;46.10;;;;;;5133247;27;20399;-41
2022/08/14 02:49:27;;;;;;;9.90;7.50;;;22.20;46.10;;;;;;5133269;27;20393;-40
2022/08/14 02:51:55;;;;;;;9.93;6.93;;;22.20;46.00;;;;;;5133560;27;20784;-42
2022/08/14 02:54:22;;;;;;;9.10;7.33;;;22.30;46.00;;;;;;5133408;27;20407;-41
2022/08/14 02:56:53;;;;;;;13.80;8.43;;;22.20;46.00;;;;;;5132876;27;20457;-40
2022/08/14 02:59:20;;;;;;;9.80;7.00;;;22.20;46.30;;;;;;5133414;27;20376;-40
2022/08/14 03:01:46;;;;;;;9.10;7.47;;;22.20;46.50;;;;;;5133184;27;20439;-41
2022/08/14 03:04:13;;;;;;;9.73;7.97;;;22.20;46.40;;;;;;5133176;27;20407;-40
2022/08/14 03:06:42;;;;;;;11.13;8.30;;;22.20;46.50;;;;;;5133008;27;20396;-40
2022/08/14 03:09:08;;;;;;;7.80;6.40;;;22.20;46.30;;;;;;5133211;27;20479;-40
2022/08/14 03:11:34;;;;;;;9.70;6.80;;;22.20;46.30;;;;;;5133210;27;20420;-40
2022/08/14 03:14:00;;;;;;;10.53;7.93;;;22.20;46.20;;;;;;5133195;27;20396;-40
2022/08/14 03:16:27;;;;;;;10.97;8.03;;;22.20;46.40;;;;;;5132939;27;20415;-41
2022/08/14 03:18:57;;;;;;;9.20;6.90;;;22.20;46.50;;;;;;5133169;28;20162;-39
2022/08/14 03:21:23;;;;;;;9.90;7.30;;;22.20;46.50;;;;;;5132900;28;20547;-40
2022/08/14 03:24:06;;;;;;;8.33;6.77;;;22.20;46.30;;;;;;5133136;28;20419;-40
2022/08/14 03:26:32;;;;;;;8.30;7.47;;;22.20;46.50;;;;;;5133008;28;20377;-41
2022/08/14 03:28:58;;;;;;;10.60;8.03;;;22.10;46.70;;;;;;5132895;28;20775;-42
2022/08/14 03:31:24;;;;;;;8.50;6.50;;;22.00;46.60;;;;;;5132881;28;20561;-42
2022/08/14 03:33:50;;;;;;;9.90;7.63;;;22.10;46.70;;;;;;5133017;28;20412;-40
2022/08/14 03:36:19;;;;;;;8.10;6.47;;;22.10;46.60;;;;;;5132729;28;20245;-40
2022/08/14 03:38:48;;;;;;;8.57;7.50;;;22.00;46.30;;;;;;5132906;28;20475;-41
2022/08/14 03:41:16;;;;;;;8.30;7.13;;;22.00;46.60;;;;;;5114265;28;21127;-40
2022/08/14 03:43:43;;;;;;;11.30;8.00;;;21.90;46.70;;;;;;5132771;28;20407;-42
2022/08/14 03:46:11;;;;;;;8.47;7.37;;;21.90;46.70;;;;;;5132611;28;20392;-40
2022/08/14 03:48:38;;;;;;;7.70;6.50;;;22.00;46.80;;;;;;5132860;28;20785;-40
2022/08/14 03:51:07;;;;;;;9.80;7.47;;;21.90;46.70;;;;;;5132690;28;20455;-40
2022/08/14 03:53:37;;;;;;;8.83;6.60;;;21.90;46.50;;;;;;5132736;28;20407;-41
2022/08/14 03:56:06;;;;;;;9.70;7.50;;;22.00;46.60;;;;;;5132852;28;20814;-41
2022/08/14 03:58:32;;;;;;;8.13;6.40;;;22.00;46.70;;;;;;5132913;28;20404;-39
2022/08/14 04:00:59;;;;;;;9.93;7.27;;;21.90;46.90;;;;;;5132517;28;20493;-40
2022/08/14 04:03:25;;;;;;;9.70;7.17;;;21.90;47.00;;;;;;5132650;28;20424;-41
2022/08/14 04:05:52;;;;;;;12.50;7.20;;;21.90;47.00;;;;;;5132440;28;20402;-41
2022/08/14 04:08:19;;;;;;;10.40;8.10;;;21.90;46.80;;;;;;5135571;27;20457;-40
2022/08/14 04:10:45;;;;;;;8.33;7.43;;;21.90;46.80;;;;;;5136269;27;20451;-40
2022/08/14 04:13:15;;;;;;;8.93;7.33;;;21.90;47.10;;;;;;5136401;27;20396;-40
2022/08/14 04:15:41;;;;;;;10.40;7.73;;;21.90;47.20;;;;;;5136305;27;20435;-40
2022/08/14 04:18:07;;;;;;;9.33;7.73;;;21.80;47.30;;;;;;5136407;27;20408;-40
2022/08/14 04:20:38;;;;;;;8.77;7.23;;;21.80;47.30;;;;;;5136095;27;20823;-40
2022/08/14 04:23:05;;;;;;;9.27;7.30;;;21.90;47.30;;;;;;5136174;27;20400;-40
2022/08/14 04:25:32;;;;;;;7.67;6.87;;;21.90;47.10;;;;;;5136019;27;20764;-40
2022/08/14 04:28:05;;;;;;;9.33;8.23;;;22.00;47.40;;;;;;5136214;27;20800;-40
2022/08/14 04:30:37;;;;;;;13.00;7.63;;;22.00;47.80;;;;;;5136066;27;20472;-40
2022/08/14 04:33:07;;;;;;;10.03;7.80;;;22.00;48.20;;;;;;5136080;27;20392;-40
2022/08/14 04:35:34;;;;;;;9.73;8.60;;;22.00;48.40;;;;;;5135995;27;20760;-42
2022/08/14 04:43:37;;;;;;;10.60;8.77;;;22.10;48.70;;;;;;5135960;27;20412;-40
2022/08/14 04:46:10;;;;;;;10.77;8.80;;;22.20;49.00;;;;;;5135865;27;20486;-42
2022/08/14 04:48:36;;;;;;;12.83;8.20;;;22.30;48.80;;;;;;5136037;27;20428;-42
2022/08/14 04:51:08;;;;;;;9.60;8.07;;;22.40;48.60;;;;;;5135648;27;20420;-42
2022/08/14 04:53:36;;;;;;;11.30;8.90;;;22.50;48.40;;;;;;5117375;27;20400;-40
2022/08/14 04:56:04;;;;;;;9.87;7.83;;;22.50;48.40;;;;;;5135372;27;20763;-40
2022/08/14 04:58:32;;;;;;;11.30;8.37;;;22.60;48.40;;;;;;5135695;27;20400;-40
2022/08/14 05:00:59;;;;;;;9.73;7.40;;;22.70;48.50;;;;;;5135368;27;20810;-41
2022/08/14 05:03:27;;;;;;;8.67;7.50;;;22.80;48.40;;;;;;5135507;27;20396;-40
2022/08/14 05:05:55;;;;;;;9.00;7.23;;;22.90;48.20;;;;;;5135359;27;20404;-40
2022/08/14 05:08:21;;;;;;;12.73;9.47;;;22.90;48.10;;;;;;5135456;27;20398;-40
2022/08/14 05:10:52;;;;;;;9.63;7.13;;;23.00;48.00;;;;;;5135506;27;20435;-40
2022/08/14 05:13:22;;;;;;;9.70;8.20;;;23.10;48.00;;;;;;5135162;27;20488;-40
2022/08/14 05:15:48;;;;;;;8.43;6.17;;;23.20;47.80;;;;;;5135227;27;20533;-40
2022/08/14 05:18:26;;;;;;;10.47;8.47;;;23.30;47.70;;;;;;5135109;27;20407;-40
2022/08/14 05:20:54;;;;;;;11.40;8.37;;;23.40;47.70;;;;;;5135032;27;20548;-40
2022/08/14 05:23:22;;;;;;;9.17;7.50;;;23.40;47.50;;;;;;5135071;27;20401;-40
2022/08/14 05:25:53;;;;;;;10.37;7.20;;;23.50;47.70;;;;;;5134713;27;20420;-40
2022/08/14 05:28:25;;;;;;;9.27;8.13;;;23.60;47.40;;;;;;5135050;27;20449;-40
2022/08/14 05:30:57;;;;;;;11.07;8.73;;;23.70;47.30;;;;;;5135127;27;20516;-40
2022/08/14 05:33:27;;;;;;;9.07;7.37;;;23.80;47.30;;;;;;5134888;27;20400;-40
2022/08/14 05:35:59;;;;;;;14.50;9.70;;;23.80;47.10;;;;;;5134648;27;20468;-40
2022/08/14 05:38:28;;;;;;;11.83;9.20;;;23.90;47.30;;;;;;5134754;27;20464;-40
2022/08/14 05:40:58;;;;;;;9.30;7.97;;;23.90;47.10;;;;;;5134535;27;20448;-40
2022/08/14 05:43:24;;;;;;;10.00;7.70;;;24.00;47.00;;;;;;5135223;27;20408;-41
2022/08/14 05:45:50;;;;;;;12.13;9.10;;;24.10;47.00;;;;;;5134470;27;20409;-40
2022/08/14 05:48:15;;;;;;;9.37;7.90;;;24.20;46.90;;;;;;5134610;27;20166;-40
2022/08/14 05:50:42;;;;;;;10.40;8.77;;;24.30;46.80;;;;;;5134705;27;20187;-39
2022/08/14 05:53:08;;;;;;;13.87;9.53;;;24.30;46.80;;;;;;5134498;27;20167;-41
2022/08/14 05:55:33;;;;;;;12.37;7.97;;;24.40;46.90;;;;;;5134229;27;20396;-41
2022/08/14 05:58:05;;;;;;;14.53;10.93;;;24.40;46.70;;;;;;5134463;27;20487;-41
2022/08/14 06:00:36;;;;;;;10.03;8.07;;;24.40;47.10;;;;;;5134280;27;20252;-41
2022/08/14 06:03:05;;;;;;;12.77;9.30;;;24.50;47.10;;;;;;5134406;27;20427;-40
2022/08/14 06:05:31;;;;;;;9.67;7.73;;;24.60;46.70;;;;;;5134018;27;20907;-41
2022/08/14 06:07:58;;;;;;;11.60;8.50;;;24.70;46.90;;;;;;5134061;27;20388;-41
2022/08/14 06:10:25;;;;;;;12.17;9.60;;;24.80;46.90;;;;;;5134277;27;20416;-40
2022/08/14 06:12:51;;;;;;;10.40;7.33;;;24.80;46.50;;;;;;5134339;27;20488;-41
2022/08/14 06:15:17;;;;;;;14.70;11.53;;;24.90;46.60;;;;;;5134243;27;20822;-40
2022/08/14 06:17:47;;;;;;;14.13;9.80;;;24.90;46.50;;;;;;5133791;27;20215;-41
2022/08/14 06:20:13;;;;;;;11.10;8.97;;;24.90;46.40;;;;;;5133632;27;20435;-40
2022/08/14 06:22:40;;;;;;;10.13;8.80;;;25.00;46.60;;;;;;5133917;27;20409;-40
2022/08/14 06:25:08;;;;;;;10.50;9.37;;;24.90;46.50;;;;;;5134136;27;20828;-40
2022/08/14 06:27:41;;;;;;;14.43;11.20;;;24.90;46.60;;;;;;5133685;27;20396;-40
2022/08/14 06:30:11;;;;;;;11.80;9.50;;;25.30;46.50;;;;;;5133225;27;20507;-39
2022/08/14 06:32:37;;;;;;;13.63;10.20;;;24.90;46.50;;;;;;5133889;27;20398;-40
2022/08/14 06:35:05;;;;;;;12.63;10.60;;;24.90;46.60;;;;;;5115330;27;20513;-40
2022/08/14 06:37:44;;;;;;;12.17;9.83;;;25.00;46.80;;;;;;5133430;27;20396;-40
2022/08/14 06:40:11;;;;;;;11.77;9.23;;;25.20;46.90;;;;;;5133610;27;20423;-39
2022/08/14 06:42:38;;;;;;;11.80;9.53;;;25.30;46.50;;;;;;5133593;27;20744;-41
2022/08/14 06:45:05;;;;;;;10.57;8.70;;;25.40;46.00;;;;;;5133431;27;20469;-40
2022/08/14 06:47:36;;;;;;;11.93;10.07;;;25.40;45.80;;;;;;5133244;27;20404;-41
2022/08/14 06:50:08;;;;;;;10.30;8.17;;;25.50;45.90;;;;;;5133427;27;20502;-41
2022/08/14 06:52:33;;;;;;;11.90;9.20;;;25.50;46.00;;;;;;5133333;27;20404;-40
2022/08/14 06:55:00;;;;;;;11.50;9.90;;;25.60;46.00;;;;;;5133426;27;20553;-40
2022/08/14 06:57:36;;;;;;;11.07;8.53;;;25.80;46.10;;;;;;5133106;27;20522;-40
2022/08/14 07:00:05;;;;;;;12.53;9.80;;;25.90;46.00;;;;;;5133445;27;20435;-40
2022/08/14 07:07:59;;;;;;;10.80;8.67;;;25.80;45.50;;;;;;5133137;27;20383;-41
2022/08/14 07:10:25;;;;;;;10.70;8.47;;;25.90;45.60;;;;;;5133091;27;20424;-41
2022/08/14 07:12:51;;;;;;;11.97;8.77;;;25.90;45.90;;;;;;5133122;27;20415;-42
2022/08/14 07:15:17;;;;;;;12.23;9.10;;;26.10;46.60;;;;;;5133179;27;20539;-42
2022/08/14 07:17:51;;;;;;;9.53;8.40;;;26.20;46.50;;;;;;5132920;27;20412;-42
2022/08/14 07:20:19;;;;;;;10.70;8.40;;;26.30;46.10;;;;;;5132658;27;20210;-41
2022/08/14 07:22:46;;;;;;;10.23;8.53;;;26.40;45.80;;;;;;5133187;28;20771;-41
2022/08/14 07:25:13;;;;;;;11.63;8.10;;;26.40;45.50;;;;;;5133116;28;20404;-39
2022/08/14 07:27:40;;;;;;;10.47;8.33;;;26.50;45.40;;;;;;5132771;28;20534;-41
2022/08/14 07:30:06;;;;;;;9.40;7.90;;;26.40;45.20;;;;;;5132861;28;20466;-41
2022/08/14 07:32:32;;;;;;;10.67;8.20;;;26.50;45.10;;;;;;5132968;28;20891;-40
2022/08/14 07:34:58;;;;;;;9.63;8.13;;;26.50;45.40;;;;;;5132787;28;20414;-41
2022/08/14 07:37:24;;;;;;;9.97;8.67;;;26.60;45.60;;;;;;5132609;28;20162;-40
2022/08/14 07:39:50;;;;;;;10.50;8.20;;;26.60;45.70;;;;;;5133105;28;20524;-41
2022/08/14 07:42:16;;;;;;;12.00;9.87;;;26.80;45.90;;;;;;5133831;27;20218;-41
2022/08/14 07:44:42;;;;;;;13.80;9.17;;;26.90;45.60;;;;;;5136986;27;20407;-41
2022/08/14 07:47:08;;;;;;;10.33;8.50;;;26.90;45.20;;;;;;5136868;27;20785;-41
2022/08/14 07:49:35;;;;;;;9.20;8.03;;;26.90;44.90;;;;;;5136686;27;20404;-40
2022/08/14 07:52:02;;;;;;;11.17;9.07;;;26.90;44.70;;;;;;5136789;27;20407;-40
2022/08/14 07:54:28;;;;;;;9.83;8.80;;;26.90;44.50;;;;;;5136839;27;20907;-41
2022/08/14 07:56:54;;;;;;;11.33;9.03;;;26.90;44.50;;;;;;5136681;27;20415;-42
2022/08/14 07:59:20;;;;;;;11.10;8.33;;;26.90;44.40;;;;;;5136593;27;20439;-41
2022/08/14 08:01:47;;;;;;;13.00;8.70;;;26.80;44.40;;;;;;5136844;27;20204;-40
2022/08/14 08:04:14;;;;;;;11.43;10.20;;;26.80;44.50;;;;;;5136559;27;20966;-40
2022/08/14 08:06:40;;;;;;;9.70;8.20;;;26.90;44.60;;;;;;5136330;27;20404;-41
2022/08/14 08:09:08;;;;;;;10.77;8.13;;;26.90;44.40;;;;;;5136600;27;20753;-41
2022/08/14 08:11:35;;;;;;;10.20;8.63;;;27.00;45.00;;;;;;5136370;27;20198;-41
2022/08/14 08:14:06;;;;;;;12.97;9.93;;;27.10;45.00;;;;;;5136404;27;20396;-41
2022/08/14 08:16:33;;;;;;;11.57;9.63;;;27.30;45.10;;;;;;5136070;27;20399;-41
2022/08/14 08:18:59;;;;;;;11.17;10.03;;;27.30;44.50;;;;;;5136232;27;20891;-41
2022/08/14 08:21:25;;;;;;;12.23;9.40;;;27.50;44.30;;;;;;5135994;27;20535;-41
2022/08/14 08:23:53;;;;;;;9.93;8.57;;;27.50;44.30;;;;;;5136209;27;20656;-41
2022/08/14 08:26:19;;;;;;;10.73;7.80;;;27.60;43.90;;;;;;5135906;27;20410;-41
2022/08/14 08:28:56;;;;;;;10.60;9.20;;;27.70;44.20;;;;;;5136125;27;20404;-41
2022/08/14 08:31:22;;;;;;;8.13;7.03;;;27.80;43.70;;;;;;5136200;27;20427;-42
2022/08/14 08:33:51;;;;;;;13.53;10.20;;;27.80;43.70;;;;;;5136102;27;20434;-42
2022/08/14 08:36:19;;;;;;;9.97;8.40;;;28.00;44.20;;;;;;5135674;27;20495;-40
2022/08/14 08:38:48;;;;;;;11.73;8.57;;;28.00;43.80;;;;;;5135943;27;20417;-41
2022/08/14 08:41:14;;;;;;;12.77;9.50;;;28.10;43.50;;;;;;5136095;27;20546;-41
2022/08/14 08:43:40;;;;;;;10.87;9.53;;;28.10;43.30;;;;;;5135845;27;20404;-40
2022/08/14 08:46:09;;;;;;;9.00;7.77;;;28.10;43.30;;;;;;5135718;27;20491;-40
2022/08/14 08:48:44;;;;;;;9.30;8.03;;;28.20;43.40;;;;;;5135591;27;20935;-40
2022/08/14 08:51:27;;;;;;;10.20;9.13;;;28.30;43.50;;;;;;5135563;27;20508;-40
2022/08/14 08:54:01;;;;;;;9.63;8.47;;;28.50;43.30;;;;;;5135091;27;20755;-40
2022/08/14 08:56:40;;;;;;;9.87;8.83;;;28.60;43.00;;;;;;5135399;27;20404;-41
2022/08/14 08:59:24;;;;;;;10.37;9.17;;;28.70;42.30;;;;;;5135513;27;20408;-41
2022/08/14 09:01:53;;;;;;;10.57;9.47;;;28.80;43.10;;;;;;5135431;27;20448;-40
2022/08/14 09:04:20;;;;;;;10.47;8.53;;;28.90;42.30;;;;;;5135323;27;20462;-42
2022/08/14 09:06:46;;;;;;;15.00;8.47;;;29.10;43.00;;;;;;5135192;27;20491;-40
2022/08/14 09:09:30;;;;;;;10.07;8.90;;;29.20;42.90;;;;;;5135548;27;20491;-40
2022/08/14 09:11:59;;;;;;;9.60;7.83;;;29.30;42.10;;;;;;5135665;27;20428;-41
2022/08/14 09:14:30;;;;;;;10.17;8.37;;;29.40;42.80;;;;;;5135524;27;20404;-41
2022/08/14 09:16:58;;;;;;;10.00;8.80;;;29.40;41.50;;;;;;5135016;27;20408;-40
2022/08/14 09:19:27;;;;;;;10.33;8.73;;;29.40;41.60;;;;;;5135595;27;20400;-40
2022/08/14 09:21:53;;;;;;;11.53;8.33;;;29.50;40.50;;;;;;5134936;27;20479;-41
2022/08/14 09:24:20;;;;;;;10.40;8.53;;;29.50;40.70;;;;;;5135096;27;20893;-41
2022/08/14 09:26:46;;;;;;;9.00;7.40;;;29.60;41.20;;;;;;5134809;27;20398;-40
2022/08/14 09:29:12;;;;;;;9.23;7.90;;;29.70;41.40;;;;;;5135378;27;20412;-40
2022/08/14 09:31:43;;;;;;;9.70;8.70;;;29.90;40.80;;;;;;5135078;27;20422;-41
2022/08/14 09:34:28;;;;;;;8.70;7.80;;;29.90;40.20;;;;;;5134930;27;20400;-41
2022/08/14 09:37:16;;;;;;;10.53;8.70;;;30.10;40.70;;;;;;5134577;27;20476;-41
2022/08/14 09:40:07;;;;;;;10.43;7.70;;;30.30;40.30;;;;;;5134703;27;20429;-41
2022/08/14 09:42:49;;;;;;;9.23;7.50;;;30.50;39.40;;;;;;5134700;27;20411;-41
2022/08/14 09:45:27;;;;;;;8.43;7.53;;;30.60;39.80;;;;;;5134597;27;20393;-41
2022/08/14 09:47:56;;;;;;;10.57;8.50;;;30.60;39.60;;;;;;5134423;27;20748;-41
2022/08/14 09:50:28;;;;;;;12.10;8.37;;;30.60;38.80;;;;;;5134376;27;20424;-41
2022/08/14 09:52:56;;;;;;;7.57;6.87;;;30.80;39.10;;;;;;5134732;27;20399;-41
2022/08/14 09:55:24;;;;;;;7.47;6.63;;;30.90;39.00;;;;;;5134407;27;20408;-40
2022/08/14 09:57:51;;;;;;;7.00;5.50;;;31.10;36.50;;;;;;5134477;27;20472;-41
2022/08/14 10:00:21;;;;;;;7.20;5.10;;;31.20;38.50;;;;;;5134522;27;20810;-40
2022/08/14 10:03:01;;;;;;;5.40;4.37;;;31.40;37.70;;;;;;5134431;27;20428;-41
2022/08/14 10:05:37;;;;;;;9.63;5.43;;;31.50;35.60;;;;;;5133744;27;20384;-41
2022/08/14 10:08:04;;;;;;;5.70;5.20;;;31.60;34.40;;;;;;5134342;27;20399;-40
2022/08/14 10:10:40;;;;;;;6.30;5.00;;;31.70;34.10;;;;;;5134347;27;20431;-42
2022/08/14 10:13:20;;;;;;;7.63;5.73;;;31.70;34.60;;;;;;5134125;27;20485;-41
2022/08/14 10:15:48;;;;;;;6.13;5.33;;;31.70;33.70;;;;;;5133885;27;20490;-42
2022/08/14 10:18:16;;;;;;;5.67;5.07;;;31.70;34.30;;;;;;5115527;27;20411;-41
2022/08/14 10:20:59;;;;;;;5.50;4.90;;;31.70;34.90;;;;;;5133782;27;20610;-43
2022/08/14 10:23:37;;;;;;;7.17;5.70;;;31.70;34.80;;;;;;5134037;27;20424;-40
2022/08/14 10:26:06;;;;;;;6.63;5.97;;;31.70;35.30;;;;;;5133668;27;20408;-41
2022/08/14 10:28:43;;;;;;;6.23;5.63;;;31.70;34.20;;;;;;5133891;27;20556;-40
2022/08/14 10:31:22;;;;;;;7.37;6.70;;;31.70;33.40;;;;;;5133683;27;20422;-40
2022/08/14 10:34:09;;;;;;;5.30;4.20;;;31.70;33.50;;;;;;5133714;27;20400;-41
2022/08/14 10:36:41;;;;;;;7.63;6.30;;;31.80;33.20;;;;;;5116365;27;20403;-40
2022/08/14 10:39:19;;;;;;;6.00;4.83;;;31.90;33.20;;;;;;5133647;27;20404;-40
2022/08/14 10:41:46;;;;;;;5.97;5.37;;;32.00;33.20;;;;;;5134816;27;20466;-42
2022/08/14 10:44:15;;;;;;;7.17;5.50;;;32.10;33.50;;;;;;5136346;27;20492;-41
2022/08/14 10:46:46;;;;;;;6.40;5.67;;;32.20;33.40;;;;;;5134064;27;20403;-41
2022/08/14 10:49:22;;;;;;;5.83;5.20;;;32.40;33.60;;;;;;5133559;27;20919;-42
2022/08/14 10:52:24;;;;;;;5.97;5.37;;;32.50;33.50;;;;;;5134917;27;20408;-43
2022/08/14 10:54:52;;;;;;;7.60;5.10;;;32.70;32.50;;;;;;5134321;27;20404;-43
2022/08/14 10:57:26;;;;;;;5.43;4.93;;;32.80;32.10;;;;;;5133692;27;20418;-43
2022/08/14 11:00:00;;;;;;;5.93;5.20;;;32.90;32.20;;;;;;5133658;27;20608;-43
2022/08/14 11:02:30;;;;;;;5.77;5.17;;;32.90;32.50;;;;;;5133283;27;20447;-43
2022/08/14 11:05:06;;;;;;;6.90;6.17;;;33.00;32.70;;;;;;5133313;27;20427;-42
2022/08/14 11:07:35;;;;;;;12.63;5.60;;;33.00;33.10;;;;;;5132899;27;20407;-42
2022/08/14 11:10:11;;;;;;;5.33;4.83;;;33.00;31.80;;;;;;5133087;27;20416;-43
2022/08/14 11:12:54;;;;;;;5.33;4.83;;;33.10;31.60;;;;;;5133175;27;20903;-43
2022/08/14 11:15:25;;;;;;;5.33;4.83;;;33.10;30.90;;;;;;5133100;27;20424;-42
2022/08/14 11:17:52;;;;;;;6.00;4.77;;;33.20;31.60;;;;;;5132762;27;20925;-43
2022/08/14 11:20:23;;;;;;;4.83;4.13;;;33.20;30.90;;;;;;5132716;27;20796;-42
2022/08/14 11:22:55;;;;;;;6.80;5.77;;;33.30;30.70;;;;;;5133122;28;20842;-43
2022/08/14 11:25:23;;;;;;;5.40;4.87;;;33.40;30.70;;;;;;5133174;28;20760;-42
2022/08/14 11:27:52;;;;;;;7.47;5.40;;;33.40;30.60;;;;;;5132888;28;20617;-43
2022/08/14 11:30:21;;;;;;;6.43;4.83;;;33.40;30.70;;;;;;5132738;28;20503;-43
2022/08/14 11:32:48;;;;;;;4.13;3.73;;;33.50;29.10;;;;;;5132907;28;20389;-43
2022/08/14 11:35:20;;;;;;;6.50;4.97;;;33.50;29.90;;;;;;5133052;28;20405;-42
2022/08/14 11:38:06;;;;;;;5.07;4.57;;;33.60;29.00;;;;;;5132886;28;20806;-41
2022/08/14 11:40:34;;;;;;;7.10;5.30;;;33.50;28.60;;;;;;5132825;28;20688;-42
2022/08/14 11:43:02;;;;;;;5.63;4.63;;;33.50;28.20;;;;;;5132695;28;20407;-43
2022/08/14 11:45:33;;;;;;;6.50;4.70;;;33.30;28.20;;;;;;5132828;28;20392;-43
2022/08/14 11:48:13;;;;;;;5.50;4.77;;;33.10;28.40;;;;;;5132949;28;20423;-42
2022/08/14 11:50:39;;;;;;;6.57;5.10;;;32.90;28.40;;;;;;5133081;28;20430;-43
2022/08/14 11:53:06;;;;;;;5.03;4.53;;;32.80;29.10;;;;;;5132654;28;20781;-43
2022/08/14 11:55:37;;;;;;;5.10;4.60;;;32.70;29.70;;;;;;5132607;28;20166;-44
2022/08/14 11:58:09;;;;;;;6.13;5.53;;;32.60;30.00;;;;;;5132683;28;20411;-41
2022/08/14 12:00:49;;;;;;;5.83;5.23;;;32.50;29.50;;;;;;5132451;28;20796;-42
2022/08/14 12:03:15;;;;;;;8.13;5.50;;;32.40;28.70;;;;;;5132675;28;20384;-42
2022/08/14 12:05:41;;;;;;;5.93;5.33;;;32.30;29.60;;;;;;5132635;28;20423;-41
2022/08/14 12:08:09;;;;;;;6.77;5.50;;;32.20;30.20;;;;;;5132625;28;20400;-43
2022/08/14 12:10:40;;;;;;;6.10;5.50;;;32.20;30.40;;;;;;5132456;28;20560;-42
2022/08/14 12:13:31;;;;;;;5.87;5.13;;;32.10;31.00;;;;;;5132582;28;20415;-43
2022/08/14 12:16:19;;;;;;;10.07;4.97;;;32.10;31.30;;;;;;5132379;28;20432;-43
2022/08/14 12:18:48;;;;;;;6.70;6.00;;;32.00;31.20;;;;;;5132757;28;20407;-42
2022/08/14 12:21:18;;;;;;;6.80;6.10;;;31.90;31.10;;;;;;5132347;28;20467;-42
2022/08/14 12:23:46;;;;;;;5.03;4.53;;;31.80;31.20;;;;;;5132533;28;20392;-43
2022/08/14 12:26:19;;;;;;;6.33;5.73;;;31.80;30.90;;;;;;5132410;28;20407;-42
2022/08/14 12:28:50;;;;;;;6.60;5.90;;;31.70;30.70;;;;;;5134105;27;20396;-43
2022/08/14 12:31:20;;;;;;;8.30;5.10;;;31.70;30.80;;;;;;5136088;27;20443;-42
2022/08/14 12:34:01;;;;;;;6.63;5.60;;;31.70;30.80;;;;;;5136116;27;20408;-42
2022/08/14 12:36:29;;;;;;;6.73;5.33;;;31.70;30.30;;;;;;5135929;27;20403;-43
2022/08/14 12:38:59;;;;;;;6.67;5.50;;;31.80;30.60;;;;;;5135961;27;20404;-43
2022/08/14 12:41:33;;;;;;;6.30;5.67;;;31.80;30.20;;;;;;5135812;27;20985;-42
2022/08/14 12:44:01;;;;;;;6.97;5.50;;;31.90;30.50;;;;;;5136242;27;20456;-41
2022/08/14 12:46:33;;;;;;;7.70;6.00;;;31.90;30.70;;;;;;5135750;27;20537;-43
2022/08/14 12:49:21;;;;;;;7.50;5.67;;;31.90;31.00;;;;;;5135787;27;20428;-44
2022/08/14 12:52:01;;;;;;;6.90;5.40;;;31.90;30.80;;;;;;5135727;27;20395;-43
2022/08/14 12:54:31;;;;;;;6.40;5.73;;;31.90;31.20;;;;;;5135662;27;20391;-42
2022/08/14 12:57:12;;;;;;;6.87;5.70;;;32.00;31.10;;;;;;5135500;27;20476;-42
2022/08/14 12:59:39;;;;;;;6.20;5.60;;;32.00;31.60;;;;;;5135712;27;20399;-42
2022/08/14 13:02:07;;;;;;;6.87;6.27;;;32.00;31.70;;;;;;5135423;27;20477;-43
2022/08/14 13:04:35;;;;;;;6.30;5.70;;;32.10;31.80;;;;;;5135516;27;20415;-43
2022/08/14 13:07:07;;;;;;;6.23;5.33;;;32.20;32.20;;;;;;5135512;27;20491;-42
2022/08/14 13:09:34;;;;;;;7.73;5.90;;;32.20;31.40;;;;;;5135424;27;20947;-43